sensor_id;sensor_type;location;lat;lon;timestamp;P1;durP1;ratioP1;P2;durP2;ratioP2
20802;SDS011;10562;-33.856;151.182;2023-06-14T00:00:54;3.90;;;0.90;;
20802;SDS011;10562;-33.856;151.182;2023-06-14T00:03:25;5.60;;;1.00;;
20802;SDS011;10562;-33.856;151.182;2023-06-14T00:05:56;6.53;;;1.13;;
20802;SDS011;10562;-33.856;151.182;2023-06-14T00:08:26;5.07;;;1.10;;
20802;SDS011;10562;-33.856;151.182;2023-06-14T00:10:57;4.28;;;0.90;;
20802;SDS011;10562;-33.856;151.182;2023-06-14T00:13:28;2.83;;;0.90;;
20802;SDS011;10562;-33.856;151.182;2023-06-14T00:16:00;2.38;;;1.00;;
20802;SDS011;10562;-33.856;151.182;2023-06-14T00:18:32;3.97;;;1.00;;
20802;SDS011;10562;-33.856;151.182;2023-06-14T00:21:04;4.53;;;1.08;;
20802;SDS011;10562;-33.856;151.182;2023-06-14T00:23:36;1.77;;;0.80;;
20802;SDS011;10562;-33.856;151.182;2023-06-14T00:26:07;3.90;;;1.00;;
20802;SDS011;10562;-33.856;151.182;2023-06-14T00:28:37;2.80;;;0.80;;
20802;SDS011;10562;-33.856;151.182;2023-06-14T00:31:10;1.67;;;0.63;;
20802;SDS011;10562;-33.856;151.182;2023-06-14T00:33:41;5.00;;;0.90;;
20802;SDS011;10562;-33.856;151.182;2023-06-14T00:36:11;3.15;;;0.80;;
20802;SDS011;10562;-33.856;151.182;2023-06-14T00:38:42;2.15;;;0.90;;
20802;SDS011;10562;-33.856;151.182;2023-06-14T00:41:13;5.22;;;0.80;;
20802;SDS011;10562;-33.856;151.182;2023-06-14T00:43:44;3.17;;;0.70;;
20802;SDS011;10562;-33.856;151.182;2023-06-14T00:46:17;3.28;;;0.75;;
20802;SDS011;10562;-33.856;151.182;2023-06-14T00:48:48;2.90;;;0.70;;
20802;SDS011;10562;-33.856;151.182;2023-06-14T00:51:19;4.25;;;0.70;;
20802;SDS011;10562;-33.856;151.182;2023-06-14T00:53:50;5.45;;;0.88;;
20802;SDS011;10562;-33.856;151.182;2023-06-14T00:56:21;3.92;;;0.77;;
20802;SDS011;10562;-33.856;151.182;2023-06-14T00:58:52;5.38;;;1.02;;
20802;SDS011;10562;-33.856;151.182;2023-06-14T01:01:25;1.75;;;0.70;;
20802;SDS011;10562;-33.856;151.182;2023-06-14T01:03:58;9.50;;;0.80;;
20802;SDS011;10562;-33.856;151.182;2023-06-14T01:06:31;3.28;;;0.77;;
20802;SDS011;10562;-33.856;151.182;2023-06-14T01:09:09;3.58;;;0.75;;
20802;SDS011;10562;-33.856;151.182;2023-06-14T01:11:49;3.22;;;0.57;;
20802;SDS011;10562;-33.856;151.182;2023-06-14T01:14:25;3.03;;;0.70;;
20802;SDS011;10562;-33.856;151.182;2023-06-14T01:16:58;2.97;;;0.60;;
20802;SDS011;10562;-33.856;151.182;2023-06-14T01:19:29;5.55;;;0.90;;
20802;SDS011;10562;-33.856;151.182;2023-06-14T01:22:01;3.88;;;0.95;;
20802;SDS011;10562;-33.856;151.182;2023-06-14T01:24:34;4.75;;;1.10;;
20802;SDS011;10562;-33.856;151.182;2023-06-14T01:27:05;2.97;;;0.80;;
20802;SDS011;10562;-33.856;151.182;2023-06-14T01:29:37;4.85;;;0.65;;
20802;SDS011;10562;-33.856;151.182;2023-06-14T01:32:12;3.00;;;1.20;;
20802;SDS011;10562;-33.856;151.182;2023-06-14T01:34:44;4.72;;;0.82;;
20802;SDS011;10562;-33.856;151.182;2023-06-14T01:37:15;1.75;;;0.82;;
20802;SDS011;10562;-33.856;151.182;2023-06-14T01:39:48;1.98;;;0.70;;
20802;SDS011;10562;-33.856;151.182;2023-06-14T01:42:20;4.63;;;0.60;;
20802;SDS011;10562;-33.856;151.182;2023-06-14T01:44:52;6.70;;;0.70;;
20802;SDS011;10562;-33.856;151.182;2023-06-14T01:47:24;5.90;;;0.50;;
20802;SDS011;10562;-33.856;151.182;2023-06-14T01:49:55;1.88;;;0.60;;
20802;SDS011;10562;-33.856;151.182;2023-06-14T01:52:26;1.92;;;0.65;;
20802;SDS011;10562;-33.856;151.182;2023-06-14T01:54:59;4.55;;;0.60;;
20802;SDS011;10562;-33.856;151.182;2023-06-14T01:57:30;1.80;;;0.52;;
20802;SDS011;10562;-33.856;151.182;2023-06-14T02:00:01;1.70;;;0.63;;
20802;SDS011;10562;-33.856;151.182;2023-06-14T02:02:32;5.00;;;1.00;;
20802;SDS011;10562;-33.856;151.182;2023-06-14T02:05:03;6.45;;;0.90;;
20802;SDS011;10562;-33.856;151.182;2023-06-14T02:07:35;1.38;;;0.50;;
20802;SDS011;10562;-33.856;151.182;2023-06-14T02:10:08;3.22;;;0.73;;
20802;SDS011;10562;-33.856;151.182;2023-06-14T02:12:38;1.77;;;0.65;;
20802;SDS011;10562;-33.856;151.182;2023-06-14T02:15:10;1.80;;;0.60;;
20802;SDS011;10562;-33.856;151.182;2023-06-14T02:17:45;5.75;;;1.17;;
20802;SDS011;10562;-33.856;151.182;2023-06-14T02:20:17;3.40;;;0.60;;
20802;SDS011;10562;-33.856;151.182;2023-06-14T02:22:48;2.15;;;0.80;;
20802;SDS011;10562;-33.856;151.182;2023-06-14T02:25:20;2.22;;;0.60;;
20802;SDS011;10562;-33.856;151.182;2023-06-14T02:27:51;3.10;;;0.80;;
20802;SDS011;10562;-33.856;151.182;2023-06-14T02:30:23;2.28;;;0.80;;
20802;SDS011;10562;-33.856;151.182;2023-06-14T02:32:54;2.20;;;0.68;;
20802;SDS011;10562;-33.856;151.182;2023-06-14T02:35:25;1.88;;;0.70;;
20802;SDS011;10562;-33.856;151.182;2023-06-14T02:37:56;1.88;;;0.60;;
20802;SDS011;10562;-33.856;151.182;2023-06-14T02:40:29;2.78;;;1.10;;
20802;SDS011;10562;-33.856;151.182;2023-06-14T02:43:00;4.20;;;0.80;;
20802;SDS011;10562;-33.856;151.182;2023-06-14T02:45:31;1.65;;;0.47;;
20802;SDS011;10562;-33.856;151.182;2023-06-14T02:48:01;4.65;;;0.80;;
20802;SDS011;10562;-33.856;151.182;2023-06-14T02:50:32;2.45;;;0.70;;
20802;SDS011;10562;-33.856;151.182;2023-06-14T02:53:03;2.42;;;0.57;;
20802;SDS011;10562;-33.856;151.182;2023-06-14T02:55:36;3.42;;;0.45;;
20802;SDS011;10562;-33.856;151.182;2023-06-14T02:58:10;1.38;;;0.50;;
20802;SDS011;10562;-33.856;151.182;2023-06-14T03:00:42;2.90;;;0.63;;
20802;SDS011;10562;-33.856;151.182;2023-06-14T03:03:12;2.85;;;0.70;;
20802;SDS011;10562;-33.856;151.182;2023-06-14T03:05:44;1.70;;;0.60;;
20802;SDS011;10562;-33.856;151.182;2023-06-14T03:08:16;2.92;;;0.95;;
20802;SDS011;10562;-33.856;151.182;2023-06-14T03:10:49;1.65;;;0.68;;
20802;SDS011;10562;-33.856;151.182;2023-06-14T03:13:20;2.25;;;0.65;;
20802;SDS011;10562;-33.856;151.182;2023-06-14T03:15:50;1.45;;;0.40;;
20802;SDS011;10562;-33.856;151.182;2023-06-14T03:18:22;2.30;;;0.63;;
20802;SDS011;10562;-33.856;151.182;2023-06-14T03:20:53;3.50;;;0.70;;
20802;SDS011;10562;-33.856;151.182;2023-06-14T03:23:27;2.72;;;0.70;;
20802;SDS011;10562;-33.856;151.182;2023-06-14T03:25:59;2.25;;;0.40;;
20802;SDS011;10562;-33.856;151.182;2023-06-14T03:28:31;2.85;;;0.70;;
20802;SDS011;10562;-33.856;151.182;2023-06-14T03:31:02;4.10;;;0.80;;
20802;SDS011;10562;-33.856;151.182;2023-06-14T03:33:33;3.88;;;0.75;;
20802;SDS011;10562;-33.856;151.182;2023-06-14T03:36:04;2.58;;;0.70;;
20802;SDS011;10562;-33.856;151.182;2023-06-14T03:38:35;3.47;;;0.68;;
20802;SDS011;10562;-33.856;151.182;2023-06-14T03:41:08;4.63;;;0.60;;
20802;SDS011;10562;-33.856;151.182;2023-06-14T03:43:38;3.55;;;0.60;;
20802;SDS011;10562;-33.856;151.182;2023-06-14T03:46:09;2.35;;;0.57;;
20802;SDS011;10562;-33.856;151.182;2023-06-14T03:48:40;6.22;;;0.80;;
20802;SDS011;10562;-33.856;151.182;2023-06-14T03:51:11;3.40;;;0.70;;
20802;SDS011;10562;-33.856;151.182;2023-06-14T03:53:42;2.97;;;0.75;;
20802;SDS011;10562;-33.856;151.182;2023-06-14T03:56:14;5.82;;;0.88;;
20802;SDS011;10562;-33.856;151.182;2023-06-14T03:58:45;4.70;;;0.75;;
20802;SDS011;10562;-33.856;151.182;2023-06-14T04:01:16;2.70;;;0.50;;
20802;SDS011;10562;-33.856;151.182;2023-06-14T04:03:47;5.03;;;0.70;;
20802;SDS011;10562;-33.856;151.182;2023-06-14T04:06:18;5.45;;;0.60;;
20802;SDS011;10562;-33.856;151.182;2023-06-14T04:08:48;3.15;;;0.70;;
20802;SDS011;10562;-33.856;151.182;2023-06-14T04:11:21;2.58;;;0.50;;
20802;SDS011;10562;-33.856;151.182;2023-06-14T04:13:52;3.42;;;0.52;;
20802;SDS011;10562;-33.856;151.182;2023-06-14T04:16:23;3.97;;;0.70;;
20802;SDS011;10562;-33.856;151.182;2023-06-14T04:18:54;1.98;;;0.50;;
20802;SDS011;10562;-33.856;151.182;2023-06-14T04:21:25;2.75;;;0.47;;
20802;SDS011;10562;-33.856;151.182;2023-06-14T04:23:56;3.40;;;0.60;;
20802;SDS011;10562;-33.856;151.182;2023-06-14T04:26:30;4.95;;;0.73;;
20802;SDS011;10562;-33.856;151.182;2023-06-14T04:29:01;1.92;;;0.57;;
20802;SDS011;10562;-33.856;151.182;2023-06-14T04:31:32;2.65;;;0.60;;
20802;SDS011;10562;-33.856;151.182;2023-06-14T04:34:05;5.43;;;0.65;;
20802;SDS011;10562;-33.856;151.182;2023-06-14T04:36:42;5.30;;;0.88;;
20802;SDS011;10562;-33.856;151.182;2023-06-14T04:39:15;3.50;;;0.70;;
20802;SDS011;10562;-33.856;151.182;2023-06-14T04:41:49;3.50;;;0.65;;
20802;SDS011;10562;-33.856;151.182;2023-06-14T04:44:23;1.15;;;0.45;;
20802;SDS011;10562;-33.856;151.182;2023-06-14T04:46:57;5.18;;;0.60;;
20802;SDS011;10562;-33.856;151.182;2023-06-14T04:49:28;4.60;;;0.57;;
20802;SDS011;10562;-33.856;151.182;2023-06-14T04:52:00;2.63;;;0.68;;
20802;SDS011;10562;-33.856;151.182;2023-06-14T04:54:30;2.30;;;0.50;;
20802;SDS011;10562;-33.856;151.182;2023-06-14T04:57:06;1.95;;;0.50;;
20802;SDS011;10562;-33.856;151.182;2023-06-14T04:59:40;6.07;;;0.90;;
20802;SDS011;10562;-33.856;151.182;2023-06-14T05:02:11;6.53;;;0.80;;
20802;SDS011;10562;-33.856;151.182;2023-06-14T05:04:42;1.80;;;0.65;;
20802;SDS011;10562;-33.856;151.182;2023-06-14T05:07:13;4.22;;;0.52;;
20802;SDS011;10562;-33.856;151.182;2023-06-14T05:09:44;3.90;;;0.60;;
20802;SDS011;10562;-33.856;151.182;2023-06-14T05:12:17;2.63;;;0.60;;
20802;SDS011;10562;-33.856;151.182;2023-06-14T05:14:49;1.42;;;0.65;;
20802;SDS011;10562;-33.856;151.182;2023-06-14T05:17:20;2.65;;;0.80;;
20802;SDS011;10562;-33.856;151.182;2023-06-14T05:19:51;1.55;;;0.52;;
20802;SDS011;10562;-33.856;151.182;2023-06-14T05:22:22;4.30;;;0.50;;
20802;SDS011;10562;-33.856;151.182;2023-06-14T05:24:53;2.70;;;0.60;;
20802;SDS011;10562;-33.856;151.182;2023-06-14T05:27:25;2.13;;;0.85;;
20802;SDS011;10562;-33.856;151.182;2023-06-14T05:29:56;2.22;;;0.70;;
20802;SDS011;10562;-33.856;151.182;2023-06-14T05:32:27;3.65;;;0.60;;
20802;SDS011;10562;-33.856;151.182;2023-06-14T05:34:58;1.70;;;0.55;;
20802;SDS011;10562;-33.856;151.182;2023-06-14T05:37:29;4.05;;;0.60;;
20802;SDS011;10562;-33.856;151.182;2023-06-14T05:39:59;2.08;;;0.80;;
20802;SDS011;10562;-33.856;151.182;2023-06-14T05:42:34;2.28;;;0.60;;
20802;SDS011;10562;-33.856;151.182;2023-06-14T05:45:05;4.15;;;0.73;;
20802;SDS011;10562;-33.856;151.182;2023-06-14T05:47:36;2.15;;;0.70;;
20802;SDS011;10562;-33.856;151.182;2023-06-14T05:50:07;3.08;;;0.77;;
20802;SDS011;10562;-33.856;151.182;2023-06-14T05:52:38;2.80;;;0.80;;
20802;SDS011;10562;-33.856;151.182;2023-06-14T05:55:09;0.80;;;0.57;;
20802;SDS011;10562;-33.856;151.182;2023-06-14T05:57:42;2.22;;;0.70;;
20802;SDS011;10562;-33.856;151.182;2023-06-14T06:00:14;4.70;;;0.70;;
20802;SDS011;10562;-33.856;151.182;2023-06-14T06:02:46;2.53;;;0.80;;
20802;SDS011;10562;-33.856;151.182;2023-06-14T06:05:16;1.90;;;0.75;;
20802;SDS011;10562;-33.856;151.182;2023-06-14T06:07:47;4.40;;;0.90;;
20802;SDS011;10562;-33.856;151.182;2023-06-14T06:10:18;2.00;;;0.60;;
20802;SDS011;10562;-33.856;151.182;2023-06-14T06:12:51;2.25;;;0.55;;
20802;SDS011;10562;-33.856;151.182;2023-06-14T06:15:22;3.28;;;0.80;;
20802;SDS011;10562;-33.856;151.182;2023-06-14T06:17:53;2.10;;;0.70;;
20802;SDS011;10562;-33.856;151.182;2023-06-14T06:20:24;4.35;;;0.95;;
20802;SDS011;10562;-33.856;151.182;2023-06-14T06:22:56;3.05;;;0.60;;
20802;SDS011;10562;-33.856;151.182;2023-06-14T06:25:27;5.22;;;0.80;;
20802;SDS011;10562;-33.856;151.182;2023-06-14T06:28:00;2.83;;;0.57;;
20802;SDS011;10562;-33.856;151.182;2023-06-14T06:30:30;3.80;;;0.90;;
20802;SDS011;10562;-33.856;151.182;2023-06-14T06:33:02;2.25;;;0.80;;
20802;SDS011;10562;-33.856;151.182;2023-06-14T06:35:32;2.60;;;0.90;;
20802;SDS011;10562;-33.856;151.182;2023-06-14T06:38:03;2.05;;;0.80;;
20802;SDS011;10562;-33.856;151.182;2023-06-14T06:40:35;2.40;;;0.70;;
20802;SDS011;10562;-33.856;151.182;2023-06-14T06:43:08;3.67;;;0.80;;
20802;SDS011;10562;-33.856;151.182;2023-06-14T06:45:39;2.90;;;0.70;;
20802;SDS011;10562;-33.856;151.182;2023-06-14T06:48:10;5.13;;;0.90;;
20802;SDS011;10562;-33.856;151.182;2023-06-14T06:50:42;2.42;;;0.70;;
20802;SDS011;10562;-33.856;151.182;2023-06-14T06:53:13;2.58;;;1.00;;
20802;SDS011;10562;-33.856;151.182;2023-06-14T06:55:44;4.90;;;0.90;;
20802;SDS011;10562;-33.856;151.182;2023-06-14T06:58:17;4.25;;;0.75;;
20802;SDS011;10562;-33.856;151.182;2023-06-14T07:00:48;2.92;;;0.88;;
20802;SDS011;10562;-33.856;151.182;2023-06-14T07:03:19;6.38;;;1.10;;
20802;SDS011;10562;-33.856;151.182;2023-06-14T07:05:50;5.53;;;1.50;;
20802;SDS011;10562;-33.856;151.182;2023-06-14T07:08:20;7.00;;;1.58;;
20802;SDS011;10562;-33.856;151.182;2023-06-14T07:10:51;4.18;;;1.10;;
20802;SDS011;10562;-33.856;151.182;2023-06-14T07:13:24;2.95;;;1.10;;
20802;SDS011;10562;-33.856;151.182;2023-06-14T07:15:54;7.63;;;1.10;;
20802;SDS011;10562;-33.856;151.182;2023-06-14T07:18:29;2.72;;;1.10;;
20802;SDS011;10562;-33.856;151.182;2023-06-14T07:20:59;3.10;;;1.10;;
20802;SDS011;10562;-33.856;151.182;2023-06-14T07:23:30;6.20;;;1.30;;
20802;SDS011;10562;-33.856;151.182;2023-06-14T07:26:01;3.15;;;1.13;;
20802;SDS011;10562;-33.856;151.182;2023-06-14T07:28:33;2.13;;;1.10;;
20802;SDS011;10562;-33.856;151.182;2023-06-14T07:31:04;3.17;;;0.90;;
20802;SDS011;10562;-33.856;151.182;2023-06-14T07:33:36;2.78;;;1.15;;
20802;SDS011;10562;-33.856;151.182;2023-06-14T07:36:07;2.45;;;0.90;;
20802;SDS011;10562;-33.856;151.182;2023-06-14T07:38:38;2.72;;;1.00;;
20802;SDS011;10562;-33.856;151.182;2023-06-14T07:41:08;4.68;;;1.08;;
20802;SDS011;10562;-33.856;151.182;2023-06-14T07:43:41;1.48;;;0.75;;
20802;SDS011;10562;-33.856;151.182;2023-06-14T07:46:12;3.30;;;0.93;;
20802;SDS011;10562;-33.856;151.182;2023-06-14T07:48:43;5.35;;;1.02;;
20802;SDS011;10562;-33.856;151.182;2023-06-14T07:51:14;2.08;;;0.90;;
20802;SDS011;10562;-33.856;151.182;2023-06-14T07:53:45;2.88;;;1.13;;
20802;SDS011;10562;-33.856;151.182;2023-06-14T07:56:16;2.00;;;0.93;;
20802;SDS011;10562;-33.856;151.182;2023-06-14T07:58:48;2.25;;;1.05;;
20802;SDS011;10562;-33.856;151.182;2023-06-14T08:01:19;4.90;;;1.10;;
20802;SDS011;10562;-33.856;151.182;2023-06-14T08:03:51;3.50;;;1.40;;
20802;SDS011;10562;-33.856;151.182;2023-06-14T08:06:22;2.65;;;1.08;;
20802;SDS011;10562;-33.856;151.182;2023-06-14T08:08:53;2.85;;;1.05;;
20802;SDS011;10562;-33.856;151.182;2023-06-14T08:11:23;6.85;;;1.10;;
20802;SDS011;10562;-33.856;151.182;2023-06-14T08:13:56;3.28;;;1.20;;
20802;SDS011;10562;-33.856;151.182;2023-06-14T08:16:27;3.72;;;1.23;;
20802;SDS011;10562;-33.856;151.182;2023-06-14T08:18:58;2.45;;;1.00;;
20802;SDS011;10562;-33.856;151.182;2023-06-14T08:21:29;3.50;;;1.00;;
20802;SDS011;10562;-33.856;151.182;2023-06-14T08:23:59;7.18;;;1.30;;
20802;SDS011;10562;-33.856;151.182;2023-06-14T08:26:30;3.33;;;1.05;;
20802;SDS011;10562;-33.856;151.182;2023-06-14T08:29:04;4.45;;;1.27;;
20802;SDS011;10562;-33.856;151.182;2023-06-14T08:31:35;4.57;;;1.17;;
20802;SDS011;10562;-33.856;151.182;2023-06-14T08:34:06;5.32;;;1.80;;
20802;SDS011;10562;-33.856;151.182;2023-06-14T08:36:37;9.60;;;2.03;;
20802;SDS011;10562;-33.856;151.182;2023-06-14T08:39:08;8.10;;;2.22;;
20802;SDS011;10562;-33.856;151.182;2023-06-14T08:41:39;6.47;;;1.95;;
20802;SDS011;10562;-33.856;151.182;2023-06-14T08:44:14;5.82;;;1.50;;
20802;SDS011;10562;-33.856;151.182;2023-06-14T08:46:45;6.10;;;1.63;;
20802;SDS011;10562;-33.856;151.182;2023-06-14T08:49:19;5.18;;;1.30;;
20802;SDS011;10562;-33.856;151.182;2023-06-14T08:51:51;5.82;;;2.28;;
20802;SDS011;10562;-33.856;151.182;2023-06-14T08:54:26;6.03;;;2.35;;
20802;SDS011;10562;-33.856;151.182;2023-06-14T08:57:02;3.30;;;1.17;;
20802;SDS011;10562;-33.856;151.182;2023-06-14T08:59:35;4.40;;;1.52;;
20802;SDS011;10562;-33.856;151.182;2023-06-14T09:02:12;6.95;;;1.38;;
20802;SDS011;10562;-33.856;151.182;2023-06-14T09:04:48;7.70;;;1.35;;
20802;SDS011;10562;-33.856;151.182;2023-06-14T09:07:19;5.90;;;1.88;;
20802;SDS011;10562;-33.856;151.182;2023-06-14T09:10:03;4.30;;;1.42;;
20802;SDS011;10562;-33.856;151.182;2023-06-14T09:12:36;4.93;;;1.60;;
20802;SDS011;10562;-33.856;151.182;2023-06-14T09:15:09;4.20;;;0.90;;
20802;SDS011;10562;-33.856;151.182;2023-06-14T09:17:40;3.05;;;1.00;;
20802;SDS011;10562;-33.856;151.182;2023-06-14T09:20:11;5.07;;;1.30;;
20802;SDS011;10562;-33.856;151.182;2023-06-14T09:22:44;5.25;;;1.05;;
20802;SDS011;10562;-33.856;151.182;2023-06-14T09:25:15;2.10;;;0.90;;
20802;SDS011;10562;-33.856;151.182;2023-06-14T09:27:46;6.00;;;1.60;;
20802;SDS011;10562;-33.856;151.182;2023-06-14T09:30:19;2.00;;;0.85;;
20802;SDS011;10562;-33.856;151.182;2023-06-14T09:32:50;3.35;;;0.80;;
20802;SDS011;10562;-33.856;151.182;2023-06-14T09:35:22;3.85;;;1.02;;
20802;SDS011;10562;-33.856;151.182;2023-06-14T09:37:55;4.40;;;1.13;;
20802;SDS011;10562;-33.856;151.182;2023-06-14T09:40:26;3.08;;;1.20;;
20802;SDS011;10562;-33.856;151.182;2023-06-14T09:42:57;1.75;;;0.90;;
20802;SDS011;10562;-33.856;151.182;2023-06-14T09:45:30;4.65;;;1.02;;
20802;SDS011;10562;-33.856;151.182;2023-06-14T09:48:01;2.75;;;1.02;;
20802;SDS011;10562;-33.856;151.182;2023-06-14T09:50:33;4.80;;;1.10;;
20802;SDS011;10562;-33.856;151.182;2023-06-14T09:53:05;3.17;;;1.08;;
20802;SDS011;10562;-33.856;151.182;2023-06-14T09:55:40;2.83;;;1.05;;
20802;SDS011;10562;-33.856;151.182;2023-06-14T09:58:11;3.20;;;0.98;;
20802;SDS011;10562;-33.856;151.182;2023-06-14T10:00:45;2.65;;;0.85;;
20802;SDS011;10562;-33.856;151.182;2023-06-14T10:03:21;3.08;;;1.00;;
20802;SDS011;10562;-33.856;151.182;2023-06-14T10:05:57;3.10;;;1.20;;
20802;SDS011;10562;-33.856;151.182;2023-06-14T10:08:31;4.40;;;1.00;;
20802;SDS011;10562;-33.856;151.182;2023-06-14T10:11:04;6.22;;;1.40;;
20802;SDS011;10562;-33.856;151.182;2023-06-14T10:13:35;3.50;;;1.17;;
20802;SDS011;10562;-33.856;151.182;2023-06-14T10:16:10;4.70;;;1.10;;
20802;SDS011;10562;-33.856;151.182;2023-06-14T10:18:47;4.03;;;1.73;;
20802;SDS011;10562;-33.856;151.182;2023-06-14T10:21:22;3.53;;;1.23;;
20802;SDS011;10562;-33.856;151.182;2023-06-14T10:23:59;4.50;;;1.23;;
20802;SDS011;10562;-33.856;151.182;2023-06-14T10:26:33;2.80;;;1.00;;
20802;SDS011;10562;-33.856;151.182;2023-06-14T10:29:18;4.15;;;1.30;;
20802;SDS011;10562;-33.856;151.182;2023-06-14T10:31:55;3.83;;;1.35;;
20802;SDS011;10562;-33.856;151.182;2023-06-14T10:34:27;3.65;;;1.15;;
20802;SDS011;10562;-33.856;151.182;2023-06-14T10:37:03;2.95;;;1.30;;
20802;SDS011;10562;-33.856;151.182;2023-06-14T10:39:37;3.65;;;1.27;;
20802;SDS011;10562;-33.856;151.182;2023-06-14T10:42:09;3.13;;;1.30;;
20802;SDS011;10562;-33.856;151.182;2023-06-14T10:44:40;5.63;;;1.35;;
20802;SDS011;10562;-33.856;151.182;2023-06-14T10:47:24;3.55;;;1.60;;
20802;SDS011;10562;-33.856;151.182;2023-06-14T10:49:57;3.10;;;1.48;;
20802;SDS011;10562;-33.856;151.182;2023-06-14T10:52:34;3.97;;;1.30;;
20802;SDS011;10562;-33.856;151.182;2023-06-14T10:55:10;2.75;;;1.30;;
20802;SDS011;10562;-33.856;151.182;2023-06-14T10:57:43;3.83;;;1.20;;
20802;SDS011;10562;-33.856;151.182;2023-06-14T11:00:17;4.00;;;1.00;;
20802;SDS011;10562;-33.856;151.182;2023-06-14T11:05:58;4.10;;;1.50;;
20802;SDS011;10562;-33.856;151.182;2023-06-14T11:08:51;5.32;;;1.55;;
20802;SDS011;10562;-33.856;151.182;2023-06-14T11:11:45;4.60;;;1.20;;
20802;SDS011;10562;-33.856;151.182;2023-06-14T11:14:17;4.13;;;1.40;;
20802;SDS011;10562;-33.856;151.182;2023-06-14T11:16:48;5.25;;;1.60;;
20802;SDS011;10562;-33.856;151.182;2023-06-14T11:19:21;5.93;;;1.50;;
20802;SDS011;10562;-33.856;151.182;2023-06-14T11:21:54;3.67;;;1.20;;
20802;SDS011;10562;-33.856;151.182;2023-06-14T11:24:25;3.53;;;1.27;;
20802;SDS011;10562;-33.856;151.182;2023-06-14T11:26:56;3.33;;;1.30;;
20802;SDS011;10562;-33.856;151.182;2023-06-14T11:29:28;3.30;;;1.10;;
20802;SDS011;10562;-33.856;151.182;2023-06-14T11:31:59;4.20;;;1.20;;
20802;SDS011;10562;-33.856;151.182;2023-06-14T11:34:32;5.13;;;1.25;;
20802;SDS011;10562;-33.856;151.182;2023-06-14T11:37:03;3.80;;;1.02;;
20802;SDS011;10562;-33.856;151.182;2023-06-14T11:39:34;3.22;;;1.13;;
20802;SDS011;10562;-33.856;151.182;2023-06-14T11:42:05;3.58;;;1.00;;
20802;SDS011;10562;-33.856;151.182;2023-06-14T11:44:36;3.38;;;1.00;;
20802;SDS011;10562;-33.856;151.182;2023-06-14T11:47:07;5.45;;;1.20;;
20802;SDS011;10562;-33.856;151.182;2023-06-14T11:49:40;4.15;;;1.17;;
20802;SDS011;10562;-33.856;151.182;2023-06-14T11:52:11;3.65;;;1.20;;
20802;SDS011;10562;-33.856;151.182;2023-06-14T11:54:42;3.75;;;1.20;;
20802;SDS011;10562;-33.856;151.182;2023-06-14T11:57:13;2.40;;;1.00;;
20802;SDS011;10562;-33.856;151.182;2023-06-14T11:59:44;2.95;;;1.10;;
20802;SDS011;10562;-33.856;151.182;2023-06-14T12:02:15;4.72;;;1.20;;
20802;SDS011;10562;-33.856;151.182;2023-06-14T12:04:49;3.17;;;1.20;;
20802;SDS011;10562;-33.856;151.182;2023-06-14T12:07:19;3.40;;;1.10;;
20802;SDS011;10562;-33.856;151.182;2023-06-14T12:10:05;5.63;;;1.02;;
20802;SDS011;10562;-33.856;151.182;2023-06-14T12:12:37;5.00;;;1.00;;
20802;SDS011;10562;-33.856;151.182;2023-06-14T12:15:08;4.85;;;0.90;;
20802;SDS011;10562;-33.856;151.182;2023-06-14T12:17:41;3.67;;;0.80;;
20802;SDS011;10562;-33.856;151.182;2023-06-14T12:20:15;4.55;;;1.00;;
20802;SDS011;10562;-33.856;151.182;2023-06-14T12:22:51;4.57;;;0.98;;
20802;SDS011;10562;-33.856;151.182;2023-06-14T12:25:29;3.45;;;0.93;;
20802;SDS011;10562;-33.856;151.182;2023-06-14T12:28:04;5.25;;;1.08;;
20802;SDS011;10562;-33.856;151.182;2023-06-14T12:30:36;5.90;;;1.15;;
20802;SDS011;10562;-33.856;151.182;2023-06-14T12:33:07;4.47;;;0.90;;
20802;SDS011;10562;-33.856;151.182;2023-06-14T12:35:39;3.50;;;1.00;;
20802;SDS011;10562;-33.856;151.182;2023-06-14T12:38:10;2.80;;;0.90;;
20802;SDS011;10562;-33.856;151.182;2023-06-14T12:40:41;2.30;;;0.90;;
20802;SDS011;10562;-33.856;151.182;2023-06-14T12:43:13;4.32;;;1.00;;
20802;SDS011;10562;-33.856;151.182;2023-06-14T12:45:43;3.53;;;0.80;;
20802;SDS011;10562;-33.856;151.182;2023-06-14T12:48:14;3.97;;;0.90;;
20802;SDS011;10562;-33.856;151.182;2023-06-14T12:50:47;4.18;;;1.05;;
20802;SDS011;10562;-33.856;151.182;2023-06-14T12:53:18;3.60;;;0.80;;
20802;SDS011;10562;-33.856;151.182;2023-06-14T12:55:49;3.17;;;0.90;;
20802;SDS011;10562;-33.856;151.182;2023-06-14T12:58:20;2.00;;;0.90;;
20802;SDS011;10562;-33.856;151.182;2023-06-14T13:00:50;2.75;;;1.00;;
20802;SDS011;10562;-33.856;151.182;2023-06-14T13:03:21;3.80;;;0.82;;
20802;SDS011;10562;-33.856;151.182;2023-06-14T13:05:54;4.82;;;1.00;;
20802;SDS011;10562;-33.856;151.182;2023-06-14T13:08:24;9.18;;;1.60;;
20802;SDS011;10562;-33.856;151.182;2023-06-14T13:10:55;2.80;;;0.80;;
20802;SDS011;10562;-33.856;151.182;2023-06-14T13:13:26;5.05;;;0.93;;
20802;SDS011;10562;-33.856;151.182;2023-06-14T13:15:57;3.95;;;1.05;;
20802;SDS011;10562;-33.856;151.182;2023-06-14T13:18:28;6.07;;;0.90;;
20802;SDS011;10562;-33.856;151.182;2023-06-14T13:21:00;2.22;;;0.63;;
20802;SDS011;10562;-33.856;151.182;2023-06-14T13:23:31;3.03;;;0.80;;
20802;SDS011;10562;-33.856;151.182;2023-06-14T13:26:02;4.20;;;0.90;;
20802;SDS011;10562;-33.856;151.182;2023-06-14T13:28:38;5.28;;;1.10;;
20802;SDS011;10562;-33.856;151.182;2023-06-14T13:31:09;4.50;;;0.90;;
20802;SDS011;10562;-33.856;151.182;2023-06-14T13:33:39;2.60;;;0.70;;
20802;SDS011;10562;-33.856;151.182;2023-06-14T13:36:13;3.10;;;0.80;;
20802;SDS011;10562;-33.856;151.182;2023-06-14T13:38:44;2.30;;;0.80;;
20802;SDS011;10562;-33.856;151.182;2023-06-14T13:41:15;3.70;;;1.05;;
20802;SDS011;10562;-33.856;151.182;2023-06-14T13:43:46;2.63;;;0.73;;
20802;SDS011;10562;-33.856;151.182;2023-06-14T13:46:18;3.65;;;0.85;;
20802;SDS011;10562;-33.856;151.182;2023-06-14T13:48:49;2.15;;;0.80;;
20802;SDS011;10562;-33.856;151.182;2023-06-14T13:51:22;4.25;;;0.90;;
20802;SDS011;10562;-33.856;151.182;2023-06-14T13:53:53;5.30;;;0.88;;
20802;SDS011;10562;-33.856;151.182;2023-06-14T13:56:23;2.65;;;0.70;;
20802;SDS011;10562;-33.856;151.182;2023-06-14T13:58:55;3.75;;;1.00;;
20802;SDS011;10562;-33.856;151.182;2023-06-14T14:01:26;3.67;;;0.70;;
20802;SDS011;10562;-33.856;151.182;2023-06-14T14:03:57;5.93;;;1.17;;
20802;SDS011;10562;-33.856;151.182;2023-06-14T14:06:30;4.28;;;0.90;;
20802;SDS011;10562;-33.856;151.182;2023-06-14T14:09:01;3.35;;;0.90;;
20802;SDS011;10562;-33.856;151.182;2023-06-14T14:11:32;2.30;;;0.70;;
20802;SDS011;10562;-33.856;151.182;2023-06-14T14:14:03;5.35;;;0.90;;
20802;SDS011;10562;-33.856;151.182;2023-06-14T14:16:33;3.42;;;0.95;;
20802;SDS011;10562;-33.856;151.182;2023-06-14T14:19:04;4.07;;;0.80;;
20802;SDS011;10562;-33.856;151.182;2023-06-14T14:21:37;3.80;;;0.90;;
20802;SDS011;10562;-33.856;151.182;2023-06-14T14:24:08;3.67;;;0.90;;
20802;SDS011;10562;-33.856;151.182;2023-06-14T14:26:39;4.65;;;1.00;;
20802;SDS011;10562;-33.856;151.182;2023-06-14T14:29:10;8.10;;;1.10;;
20802;SDS011;10562;-33.856;151.182;2023-06-14T14:31:41;3.47;;;0.82;;
20802;SDS011;10562;-33.856;151.182;2023-06-14T14:34:12;3.92;;;0.70;;
20802;SDS011;10562;-33.856;151.182;2023-06-14T14:36:46;3.67;;;0.80;;
20802;SDS011;10562;-33.856;151.182;2023-06-14T14:39:16;4.25;;;0.82;;